Time;durP1;ratioP1;P1;durP2;ratioP2;P2;SDS_P1;SDS_P2;PMS_P1;PMS_P2;Temp;Humidity;BMP_temperature;BMP_pressure;BME280_temperature;BME280_humidity;BME280_pressure;Samples;Min_cycle;Max_cycle;Signal;HPM_P1;HPM_P2
2023/09/25 00:00:23;;;;;;;;;3.00;2.00;;;;;;;;5041061;28;45477;-75
2023/09/25 00:02:48;;;;;;;;;2.00;1.00;;;;;;;;5039501;28;48317;-76
2023/09/25 00:05:16;;;;;;;;;2.00;2.00;;;;;;;;5041050;28;45267;-76
2023/09/25 00:07:41;;;;;;;;;4.00;2.67;;;;;;;;5041300;28;45313;-76
2023/09/25 00:10:07;;;;;;;;;2.00;1.00;;;;;;;;5040713;28;45620;-76
2023/09/25 00:12:33;;;;;;;;;3.67;3.00;;;;;;;;5039448;28;48600;-76
2023/09/25 00:14:58;;;;;;;;;4.00;4.00;;;;;;;;5040887;28;45404;-76
2023/09/25 00:17:23;;;;;;;;;4.67;2.00;;;;;;;;5041179;28;45243;-75
2023/09/25 00:19:48;;;;;;;;;2.33;2.00;;;;;;;;5039434;28;45880;-76
2023/09/25 00:22:14;;;;;;;;;4.00;2.67;;;;;;;;5040503;28;45296;-75
2023/09/25 00:24:39;;;;;;;;;2.33;2.33;;;;;;;;5040419;28;45314;-75
2023/09/25 00:27:04;;;;;;;;;2.33;2.33;;;;;;;;5039897;28;45216;-76
2023/09/25 00:29:29;;;;;;;;;2.33;2.33;;;;;;;;5029973;28;45417;-76
2023/09/25 00:31:54;;;;;;;;;2.00;2.00;;;;;;;;5020729;28;46224;-76
2023/09/25 00:34:20;;;;;;;;;3.00;3.00;;;;;;;;5020786;28;45302;-75
2023/09/25 00:36:45;;;;;;;;;3.33;3.33;;;;;;;;5020750;28;45363;-76
2023/09/25 00:39:10;;;;;;;;;2.00;1.00;;;;;;;;5020444;28;45244;-76
2023/09/25 00:41:35;;;;;;;;;1.00;1.00;;;;;;;;5020558;28;45253;-76
2023/09/25 00:44:01;;;;;;;;;2.33;2.33;;;;;;;;5020596;28;45379;-76
2023/09/25 00:46:26;;;;;;;;;4.00;3.00;;;;;;;;5020733;28;45514;-76
2023/09/25 00:48:52;;;;;;;;;1.00;1.00;;;;;;;;5019308;28;45320;-76
2023/09/25 00:51:17;;;;;;;;;0.67;0.67;;;;;;;;5020296;28;45239;-76
2023/09/25 00:53:45;;;;;;;;;3.00;2.00;;;;;;;;5020197;28;45314;-76
2023/09/25 00:56:10;;;;;;;;;2.00;2.00;;;;;;;;5020580;28;45406;-76
2023/09/25 00:58:35;;;;;;;;;2.33;1.67;;;;;;;;5020164;28;45233;-76
2023/09/25 01:01:01;;;;;;;;;2.67;2.00;;;;;;;;5020089;28;45451;-76
2023/09/25 01:03:26;;;;;;;;;1.00;0.67;;;;;;;;5020282;28;45199;-76
2023/09/25 01:05:51;;;;;;;;;2.67;1.67;;;;;;;;5020226;28;45309;-75
2023/09/25 01:08:16;;;;;;;;;0.00;0.00;;;;;;;;5035338;28;46117;-76
2023/09/25 01:10:42;;;;;;;;;6.00;4.67;;;;;;;;5018597;28;48392;-76
2023/09/25 01:13:09;;;;;;;;;0.33;0.33;;;;;;;;5020191;28;45387;-75
2023/09/25 01:15:35;;;;;;;;;2.00;2.00;;;;;;;;5020245;28;45331;-76
2023/09/25 01:18:00;;;;;;;;;1.33;1.33;;;;;;;;5020027;28;45290;-76
2023/09/25 01:20:25;;;;;;;;;2.00;2.00;;;;;;;;5019915;28;45327;-76
2023/09/25 01:22:50;;;;;;;;;1.33;1.33;;;;;;;;5020111;28;45298;-76
2023/09/25 01:25:17;;;;;;;;;2.00;2.00;;;;;;;;5019742;28;45377;-75
2023/09/25 01:27:42;;;;;;;;;2.67;2.67;;;;;;;;5019945;28;45291;-75
2023/09/25 01:30:09;;;;;;;;;1.00;1.00;;;;;;;;5019455;28;46163;-76
2023/09/25 01:32:35;;;;;;;;;2.00;2.00;;;;;;;;5019955;28;45358;-77
2023/09/25 01:35:01;;;;;;;;;3.00;3.00;;;;;;;;5020042;28;45288;-76
2023/09/25 01:37:27;;;;;;;;;1.67;1.67;;;;;;;;5034882;28;47266;-76
2023/09/25 01:39:52;;;;;;;;;2.33;2.00;;;;;;;;5019474;28;45453;-76
2023/09/25 01:42:17;;;;;;;;;2.00;2.00;;;;;;;;5034868;28;45774;-77
2023/09/25 01:44:43;;;;;;;;;2.33;2.33;;;;;;;;5035140;28;45364;-75
2023/09/25 01:47:08;;;;;;;;;3.00;3.00;;;;;;;;5019734;28;45488;-75
2023/09/25 01:49:33;;;;;;;;;5.33;5.00;;;;;;;;5019516;28;45361;-76
2023/09/25 01:51:58;;;;;;;;;4.00;3.00;;;;;;;;5023260;28;45303;-76
2023/09/25 01:54:24;;;;;;;;;2.00;2.00;;;;;;;;5037759;28;45296;-76
2023/09/25 01:56:49;;;;;;;;;2.00;2.00;;;;;;;;5039147;28;45480;-76
2023/09/25 01:59:14;;;;;;;;;2.33;2.33;;;;;;;;5040634;28;46356;-75
2023/09/25 02:01:39;;;;;;;;;4.00;4.00;;;;;;;;5046103;28;45295;-75
2023/09/25 02:04:04;;;;;;;;;2.33;2.33;;;;;;;;5046266;28;45286;-75
2023/09/25 02:06:30;;;;;;;;;3.33;2.67;;;;;;;;5044540;28;47868;-76
2023/09/25 02:08:55;;;;;;;;;3.00;3.00;;;;;;;;5045834;28;45351;-76
2023/09/25 02:11:20;;;;;;;;;3.00;3.00;;;;;;;;5045899;28;45278;-76
2023/09/25 02:13:45;;;;;;;;;1.67;1.67;;;;;;;;5046218;28;45406;-75
2023/09/25 02:16:10;;;;;;;;;2.67;2.67;;;;;;;;5045891;28;45309;-75
2023/09/25 02:18:35;;;;;;;;;3.33;3.33;;;;;;;;5045845;28;45514;-76
2023/09/25 02:21:01;;;;;;;;;3.00;3.00;;;;;;;;5045725;28;45247;-76
2023/09/25 02:23:26;;;;;;;;;4.00;3.00;;;;;;;;5045865;28;45588;-76
2023/09/25 02:25:51;;;;;;;;;5.67;4.00;;;;;;;;5045641;28;45398;-76
2023/09/25 02:28:16;;;;;;;;;1.33;1.33;;;;;;;;5044426;28;47344;-75
2023/09/25 02:30:41;;;;;;;;;2.33;2.33;;;;;;;;5045522;28;45225;-76
2023/09/25 02:33:06;;;;;;;;;3.33;2.33;;;;;;;;5032225;28;45466;-76
2023/09/25 02:35:32;;;;;;;;;3.67;2.67;;;;;;;;5024260;28;46326;-75
2023/09/25 02:37:57;;;;;;;;;4.33;2.67;;;;;;;;5025518;28;45569;-76
2023/09/25 02:40:22;;;;;;;;;2.33;2.33;;;;;;;;5025612;28;45170;-76
2023/09/25 02:42:48;;;;;;;;;3.33;3.00;;;;;;;;5025691;28;45511;-75
2023/09/25 02:45:13;;;;;;;;;1.67;1.67;;;;;;;;5025639;28;45680;-76
2023/09/25 02:47:38;;;;;;;;;3.00;1.67;;;;;;;;5025509;28;45292;-75
2023/09/25 02:50:05;;;;;;;;;2.67;2.33;;;;;;;;5025482;28;45302;-75
2023/09/25 02:52:30;;;;;;;;;2.33;2.33;;;;;;;;5024162;28;45398;-76
2023/09/25 02:54:56;;;;;;;;;4.00;4.00;;;;;;;;5025014;28;45647;-76
2023/09/25 02:57:21;;;;;;;;;3.33;3.33;;;;;;;;5025468;28;45303;-75
2023/09/25 02:59:46;;;;;;;;;3.33;3.33;;;;;;;;5025433;28;45281;-76
2023/09/25 03:02:11;;;;;;;;;1.67;1.67;;;;;;;;5024353;28;45405;-76
2023/09/25 03:04:37;;;;;;;;;3.00;3.00;;;;;;;;5023787;28;46094;-75
2023/09/25 03:07:02;;;;;;;;;3.00;3.00;;;;;;;;5025255;28;46393;-76
2023/09/25 03:09:27;;;;;;;;;1.67;1.67;;;;;;;;5023645;28;46028;-76
2023/09/25 03:11:52;;;;;;;;;2.33;2.33;;;;;;;;5020381;28;45432;-75
2023/09/25 03:14:18;;;;;;;;;5.33;2.33;;;;;;;;5020507;28;46383;-75
2023/09/25 03:16:43;;;;;;;;;2.67;2.67;;;;;;;;5021965;28;45331;-75
2023/09/25 03:19:08;;;;;;;;;4.00;3.00;;;;;;;;5020519;28;45325;-75
2023/09/25 03:21:33;;;;;;;;;4.00;4.00;;;;;;;;5021816;28;45355;-75
2023/09/25 03:23:58;;;;;;;;;3.33;3.33;;;;;;;;5021640;28;45426;-75
2023/09/25 03:26:24;;;;;;;;;4.00;4.00;;;;;;;;5021697;28;45295;-76
2023/09/25 03:28:49;;;;;;;;;2.67;2.67;;;;;;;;5021682;28;45315;-75
2023/09/25 03:31:14;;;;;;;;;4.00;4.00;;;;;;;;5021777;28;45298;-76
2023/09/25 03:33:40;;;;;;;;;2.00;2.00;;;;;;;;5038191;28;45397;-76
2023/09/25 03:36:06;;;;;;;;;2.67;2.67;;;;;;;;5041138;28;45330;-76
2023/09/25 03:38:32;;;;;;;;;1.33;1.33;;;;;;;;5041315;28;45365;-75
2023/09/25 03:40:57;;;;;;;;;3.00;2.00;;;;;;;;5040291;28;45335;-76
2023/09/25 03:43:22;;;;;;;;;2.33;2.00;;;;;;;;5041646;28;45450;-77
2023/09/25 03:45:48;;;;;;;;;3.00;3.00;;;;;;;;5041394;28;46897;-75
2023/09/25 03:48:13;;;;;;;;;3.67;3.00;;;;;;;;5041501;28;45294;-76
2023/09/25 03:50:38;;;;;;;;;4.33;3.33;;;;;;;;5041293;28;45354;-75
2023/09/25 03:53:03;;;;;;;;;2.33;2.00;;;;;;;;5041207;28;45248;-76
2023/09/25 03:55:29;;;;;;;;;4.67;4.33;;;;;;;;5041374;28;45461;-76
2023/09/25 03:57:54;;;;;;;;;4.00;3.00;;;;;;;;5041390;28;45239;-76
2023/09/25 04:00:19;;;;;;;;;3.67;3.67;;;;;;;;5041278;28;45434;-77
2023/09/25 04:02:45;;;;;;;;;5.00;3.00;;;;;;;;5039728;28;46807;-76
2023/09/25 04:05:10;;;;;;;;;2.00;2.00;;;;;;;;5041114;28;45267;-76
2023/09/25 04:07:38;;;;;;;;;3.33;3.33;;;;;;;;5040996;28;45528;-76
2023/09/25 04:10:07;;;;;;;;;4.00;3.00;;;;;;;;5039511;28;45274;-76
2023/09/25 04:12:32;;;;;;;;;3.00;3.00;;;;;;;;5040989;28;45303;-76
2023/09/25 04:14:57;;;;;;;;;4.33;4.33;;;;;;;;5040906;28;46305;-76
2023/09/25 04:17:22;;;;;;;;;4.00;3.00;;;;;;;;5040988;28;45310;-75
2023/09/25 04:19:48;;;;;;;;;5.00;3.67;;;;;;;;5041274;28;45382;-76
2023/09/25 04:22:13;;;;;;;;;5.33;4.00;;;;;;;;5040567;28;45303;-76
2023/09/25 04:24:38;;;;;;;;;2.67;2.00;;;;;;;;5055744;28;46870;-75
2023/09/25 04:27:04;;;;;;;;;3.00;3.00;;;;;;;;5040698;28;45301;-75
2023/09/25 04:29:29;;;;;;;;;3.33;3.33;;;;;;;;5040256;28;45291;-76
2023/09/25 04:31:54;;;;;;;;;2.33;2.33;;;;;;;;5039046;28;48139;-76
2023/09/25 04:34:19;;;;;;;;;3.67;3.00;;;;;;;;5040270;28;45325;-77
2023/09/25 04:36:46;;;;;;;;;4.00;4.00;;;;;;;;5040129;28;45188;-75
2023/09/25 04:39:11;;;;;;;;;4.00;4.00;;;;;;;;5038758;28;45461;-75
2023/09/25 04:41:37;;;;;;;;;5.67;5.00;;;;;;;;5038965;28;46409;-76
2023/09/25 04:44:04;;;;;;;;;4.00;4.00;;;;;;;;5040181;28;46342;-76
2023/09/25 04:46:30;;;;;;;;;9.00;5.33;;;;;;;;5040546;28;45350;-75
2023/09/25 04:48:55;;;;;;;;;5.33;4.00;;;;;;;;5039017;28;45337;-75
2023/09/25 04:51:20;;;;;;;;;4.67;4.67;;;;;;;;5055757;28;45841;-76
2023/09/25 04:53:45;;;;;;;;;7.00;7.00;;;;;;;;5040148;28;45298;-77
2023/09/25 04:56:17;;;;;;;;;5.33;4.33;;;;;;;;5040350;28;45366;-75
2023/09/25 04:58:42;;;;;;;;;5.00;5.00;;;;;;;;5039020;28;45214;-76
2023/09/25 05:01:07;;;;;;;;;5.67;5.67;;;;;;;;5040339;28;45490;-76
2023/09/25 05:03:33;;;;;;;;;4.00;3.00;;;;;;;;5055638;28;46832;-75
2023/09/25 05:05:58;;;;;;;;;3.67;3.67;;;;;;;;5040070;28;45317;-76
2023/09/25 05:08:23;;;;;;;;;4.00;4.00;;;;;;;;5039049;28;45602;-76
2023/09/25 05:10:49;;;;;;;;;5.00;4.00;;;;;;;;5038418;28;45413;-76
2023/09/25 05:13:14;;;;;;;;;5.00;5.00;;;;;;;;5038299;28;45877;-76
2023/09/25 05:15:39;;;;;;;;;4.00;4.00;;;;;;;;5038315;28;45353;-75
2023/09/25 05:18:05;;;;;;;;;5.00;5.00;;;;;;;;5038468;28;45340;-76
2023/09/25 05:20:30;;;;;;;;;5.33;5.33;;;;;;;;5038233;28;45280;-76
2023/09/25 05:22:56;;;;;;;;;6.33;6.00;;;;;;;;5038460;28;45341;-76
2023/09/25 05:25:22;;;;;;;;;8.00;6.67;;;;;;;;5038238;28;45585;-75
2023/09/25 05:27:48;;;;;;;;;7.67;7.67;;;;;;;;5039880;28;45405;-76
2023/09/25 05:30:13;;;;;;;;;6.33;6.33;;;;;;;;5038363;28;47274;-76
2023/09/25 05:32:39;;;;;;;;;9.00;6.33;;;;;;;;5039715;28;45262;-77
2023/09/25 05:35:05;;;;;;;;;5.00;4.67;;;;;;;;5037559;28;45617;-76
2023/09/25 05:37:30;;;;;;;;;6.67;6.00;;;;;;;;5039529;28;45289;-76
2023/09/25 05:39:55;;;;;;;;;4.00;4.00;;;;;;;;5039576;28;45516;-76
2023/09/25 05:42:21;;;;;;;;;4.00;4.00;;;;;;;;5054802;28;47144;-75
2023/09/25 05:44:46;;;;;;;;;5.00;5.00;;;;;;;;5039580;28;45337;-76
2023/09/25 05:47:11;;;;;;;;;6.33;5.67;;;;;;;;5054967;28;45447;-76
2023/09/25 05:49:36;;;;;;;;;5.33;5.33;;;;;;;;5039554;28;45328;-77
2023/09/25 05:52:03;;;;;;;;;6.33;6.33;;;;;;;;5039255;28;46327;-76
2023/09/25 05:54:28;;;;;;;;;8.00;8.00;;;;;;;;5039375;28;45350;-76
2023/09/25 05:56:53;;;;;;;;;11.33;11.33;;;;;;;;5039608;28;45286;-75
2023/09/25 05:59:19;;;;;;;;;7.67;7.00;;;;;;;;5054853;28;45816;-76
2023/09/25 06:01:44;;;;;;;;;7.00;7.00;;;;;;;;5037881;28;48121;-76
2023/09/25 06:04:10;;;;;;;;;10.00;10.00;;;;;;;;5038207;28;45551;-76
2023/09/25 06:06:35;;;;;;;;;8.00;7.00;;;;;;;;5038699;28;45390;-78
2023/09/25 06:09:00;;;;;;;;;13.00;9.67;;;;;;;;5037835;28;46226;-77
2023/09/25 06:11:26;;;;;;;;;9.33;8.67;;;;;;;;5040292;28;45287;-77
2023/09/25 06:13:51;;;;;;;;;7.33;7.33;;;;;;;;5055205;28;45335;-78
2023/09/25 06:16:16;;;;;;;;;13.33;10.00;;;;;;;;5040149;28;45276;-79
2023/09/25 06:18:42;;;;;;;;;11.67;8.33;;;;;;;;5025454;28;47191;-80
2023/09/25 06:21:10;;;;;;;;;11.33;8.00;;;;;;;;5024444;28;45332;-82
2023/09/25 06:23:36;;;;;;;;;12.33;10.00;;;;;;;;5023959;28;45374;-81
2023/09/25 06:26:01;;;;;;;;;11.00;9.00;;;;;;;;5026533;28;45320;-80
2023/09/25 06:28:29;;;;;;;;;14.33;11.00;;;;;;;;5025818;28;45455;-80
2023/09/25 06:30:55;;;;;;;;;6.00;6.00;;;;;;;;5058939;28;47664;-80
2023/09/25 06:33:20;;;;;;;;;11.67;10.33;;;;;;;;5043375;28;45249;-80
2023/09/25 06:35:45;;;;;;;;;12.67;10.00;;;;;;;;5034797;28;45434;-79
2023/09/25 06:38:10;;;;;;;;;13.00;11.67;;;;;;;;5019403;28;45546;-80
2023/09/25 06:40:35;;;;;;;;;14.67;12.00;;;;;;;;5034564;28;47347;-81
2023/09/25 06:43:00;;;;;;;;;11.67;11.00;;;;;;;;5034963;28;45642;-81
2023/09/25 06:45:26;;;;;;;;;10.00;10.00;;;;;;;;5019936;28;45297;-80
2023/09/25 06:47:51;;;;;;;;;11.67;11.00;;;;;;;;5021933;28;45870;-80
2023/09/25 06:50:17;;;;;;;;;14.33;13.33;;;;;;;;5022319;28;45433;-78
2023/09/25 06:52:42;;;;;;;;;11.33;11.33;;;;;;;;5041154;28;45279;-80
2023/09/25 06:55:07;;;;;;;;;12.00;10.33;;;;;;;;5042027;28;45390;-78
2023/09/25 06:57:33;;;;;;;;;12.00;11.67;;;;;;;;5041307;28;45726;-78
2023/09/25 06:59:58;;;;;;;;;11.00;11.00;;;;;;;;5034503;28;45280;-78
2023/09/25 07:02:24;;;;;;;;;14.00;14.00;;;;;;;;5041528;28;45315;-79
2023/09/25 07:04:50;;;;;;;;;13.00;11.33;;;;;;;;5041456;28;45350;-78
2023/09/25 07:07:15;;;;;;;;;11.00;10.00;;;;;;;;5039265;28;45484;-78
2023/09/25 07:09:41;;;;;;;;;14.00;12.00;;;;;;;;5021285;28;46293;-78
2023/09/25 07:12:06;;;;;;;;;13.33;12.67;;;;;;;;5031811;28;45390;-78
2023/09/25 07:14:31;;;;;;;;;13.00;13.00;;;;;;;;5039045;28;45458;-79
2023/09/25 07:16:56;;;;;;;;;14.00;12.33;;;;;;;;5038557;28;45926;-80
2023/09/25 07:19:22;;;;;;;;;13.00;11.00;;;;;;;;5041686;28;46417;-79
2023/09/25 07:21:47;;;;;;;;;14.67;12.33;;;;;;;;5040531;28;45233;-79
2023/09/25 07:24:12;;;;;;;;;13.33;12.67;;;;;;;;5038398;28;45415;-79
2023/09/25 07:26:37;;;;;;;;;11.00;11.00;;;;;;;;5025662;28;45213;-79
2023/09/25 07:29:02;;;;;;;;;14.00;14.00;;;;;;;;5027571;28;46316;-78
2023/09/25 07:31:29;;;;;;;;;10.67;10.67;;;;;;;;5040753;28;45378;-78
2023/09/25 07:33:55;;;;;;;;;15.00;15.00;;;;;;;;5041356;28;45233;-78
2023/09/25 07:36:21;;;;;;;;;15.67;14.00;;;;;;;;5041689;28;45291;-78
2023/09/25 07:38:46;;;;;;;;;13.67;13.33;;;;;;;;5042181;28;45597;-78
2023/09/25 07:41:12;;;;;;;;;10.00;10.00;;;;;;;;5042202;28;45587;-78
2023/09/25 07:43:37;;;;;;;;;13.67;12.33;;;;;;;;5041886;28;45248;-77
2023/09/25 07:46:03;;;;;;;;;13.00;13.00;;;;;;;;5034616;28;45698;-77
2023/09/25 07:48:30;;;;;;;;;12.67;12.67;;;;;;;;5038164;28;45487;-78
2023/09/25 07:50:58;;;;;;;;;5.00;5.00;;;;;;;;5036955;28;45302;-78
2023/09/25 07:53:23;;;;;;;;;9.67;8.67;;;;;;;;5039740;28;46461;-77
2023/09/25 07:55:48;;;;;;;;;6.00;5.67;;;;;;;;5037398;28;45470;-77
2023/09/25 07:58:13;;;;;;;;;4.33;4.33;;;;;;;;5019768;28;46231;-78
2023/09/25 08:00:40;;;;;;;;;4.00;3.00;;;;;;;;5021450;28;45382;-78
2023/09/25 08:03:06;;;;;;;;;2.00;2.00;;;;;;;;5019958;28;45304;-77
2023/09/25 08:05:31;;;;;;;;;4.00;3.00;;;;;;;;5019818;28;46009;-78
2023/09/25 08:07:57;;;;;;;;;3.67;3.67;;;;;;;;5020424;28;45336;-77
2023/09/25 08:10:22;;;;;;;;;4.00;4.00;;;;;;;;5021867;28;45363;-80
2023/09/25 08:12:47;;;;;;;;;2.00;2.00;;;;;;;;5021035;28;45324;-79
2023/09/25 08:15:12;;;;;;;;;2.33;2.33;;;;;;;;5019961;28;45387;-78
2023/09/25 08:17:41;;;;;;;;;1.00;1.00;;;;;;;;5020752;28;45970;-78
2023/09/25 08:20:14;;;;;;;;;3.00;2.00;;;;;;;;5036995;28;45299;-77
2023/09/25 08:22:40;;;;;;;;;2.00;2.00;;;;;;;;5041246;28;45498;-80
2023/09/25 08:25:05;;;;;;;;;3.33;2.00;;;;;;;;5041426;28;45447;-80
2023/09/25 08:27:30;;;;;;;;;2.33;2.33;;;;;;;;5040818;28;45468;-79
2023/09/25 08:29:56;;;;;;;;;3.00;3.00;;;;;;;;5024543;28;45639;-79
2023/09/25 08:32:21;;;;;;;;;3.00;2.67;;;;;;;;5020273;28;45230;-78
2023/09/25 08:34:46;;;;;;;;;3.00;3.00;;;;;;;;5034559;28;45274;-80
2023/09/25 08:37:11;;;;;;;;;4.00;3.00;;;;;;;;5040477;28;46352;-79
2023/09/25 08:39:36;;;;;;;;;3.00;3.00;;;;;;;;5040308;28;45401;-79
2023/09/25 08:42:02;;;;;;;;;2.00;2.00;;;;;;;;5040188;28;45337;-79
2023/09/25 08:44:27;;;;;;;;;2.00;2.00;;;;;;;;5037804;28;45402;-79
2023/09/25 08:46:52;;;;;;;;;3.00;3.00;;;;;;;;5038004;28;45702;-79
2023/09/25 08:49:18;;;;;;;;;4.00;4.00;;;;;;;;5038505;28;45424;-78
2023/09/25 08:51:43;;;;;;;;;3.00;3.00;;;;;;;;5033443;28;45483;-80
2023/09/25 08:54:09;;;;;;;;;4.67;4.00;;;;;;;;5035215;28;45750;-79
2023/09/25 08:56:34;;;;;;;;;2.00;2.00;;;;;;;;5038864;28;45332;-79
2023/09/25 08:59:00;;;;;;;;;3.00;3.00;;;;;;;;5039318;28;45401;-79
2023/09/25 09:01:26;;;;;;;;;3.67;2.33;;;;;;;;5038637;28;45316;-79
2023/09/25 09:03:51;;;;;;;;;4.00;4.00;;;;;;;;5038715;28;45951;-79
2023/09/25 09:06:17;;;;;;;;;2.67;2.00;;;;;;;;5037579;28;46073;-79
2023/09/25 09:08:46;;;;;;;;;4.00;4.00;;;;;;;;5038004;28;45352;-79
2023/09/25 09:11:13;;;;;;;;;4.00;4.00;;;;;;;;5038372;28;45281;-79
2023/09/25 09:13:48;;;;;;;;;1.00;1.00;;;;;;;;5038597;28;46436;-82
2023/09/25 09:16:14;;;;;;;;;6.33;4.00;;;;;;;;5038092;28;47336;-79
2023/09/25 09:18:40;;;;;;;;;3.00;3.00;;;;;;;;5039590;28;45719;-81
2023/09/25 09:21:07;;;;;;;;;3.00;3.00;;;;;;;;5038014;28;45505;-79
2023/09/25 09:23:40;;;;;;;;;2.33;2.33;;;;;;;;5040081;28;45425;-81
2023/09/25 09:26:13;;;;;;;;;4.33;3.33;;;;;;;;5042242;28;46069;-82
2023/09/25 09:28:40;;;;;;;;;4.67;4.67;;;;;;;;5042015;28;45348;-82
2023/09/25 09:31:07;;;;;;;;;4.00;4.00;;;;;;;;5039672;28;45523;-81
2023/09/25 09:33:40;;;;;;;;;2.00;2.00;;;;;;;;5037800;28;45345;-83
2023/09/25 09:36:05;;;;;;;;;3.00;3.00;;;;;;;;5034478;28;45561;-79
2023/09/25 09:38:36;;;;;;;;;2.67;2.00;;;;;;;;5034368;28;45456;-81
2023/09/25 09:41:01;;;;;;;;;3.67;2.67;;;;;;;;5037609;28;45392;-80
2023/09/25 09:43:30;;;;;;;;;3.67;3.67;;;;;;;;5040723;28;46014;-82
2023/09/25 09:45:56;;;;;;;;;3.00;3.00;;;;;;;;5037199;28;48090;-80
2023/09/25 09:48:44;;;;;;;;;1.33;1.33;;;;;;;;5038685;28;45495;-82
2023/09/25 09:51:16;;;;;;;;;3.33;3.00;;;;;;;;5037627;28;45421;-80
2023/09/25 09:53:42;;;;;;;;;5.00;5.00;;;;;;;;5037090;28;47649;-79
2023/09/25 09:56:08;;;;;;;;;2.67;1.67;;;;;;;;5038585;28;46389;-78
2023/09/25 09:58:36;;;;;;;;;2.00;2.00;;;;;;;;5038982;28;45347;-79
2023/09/25 10:01:02;;;;;;;;;2.00;2.00;;;;;;;;5039434;28;45232;-79
2023/09/25 10:03:29;;;;;;;;;2.25;2.25;;;;;;;;5046436;28;44810;-77
2023/09/25 10:05:55;;;;;;;;;3.33;2.33;;;;;;;;5046175;28;45507;-79
2023/09/25 10:08:21;;;;;;;;;2.00;2.00;;;;;;;;5043672;28;45372;-78
2023/09/25 10:10:50;;;;;;;;;2.00;2.00;;;;;;;;5044063;28;45442;-79
2023/09/25 10:13:18;;;;;;;;;3.67;1.67;;;;;;;;5042751;28;45255;-79
2023/09/25 10:15:50;;;;;;;;;2.00;2.00;;;;;;;;5040699;28;46359;-80
2023/09/25 10:18:16;;;;;;;;;2.00;2.00;;;;;;;;5042729;28;45300;-80
2023/09/25 10:20:45;;;;;;;;;2.00;2.00;;;;;;;;5039889;28;45634;-82
2023/09/25 10:23:11;;;;;;;;;1.75;1.00;;;;;;;;5044210;28;45358;-81
2023/09/25 10:25:46;;;;;;;;;3.00;3.00;;;;;;;;5041687;28;47461;-84
2023/09/25 10:28:31;;;;;;;;;5.00;4.00;;;;;;;;5045384;28;45479;-81
2023/09/25 10:31:01;;;;;;;;;5.33;5.33;;;;;;;;5052230;28;45331;-79
2023/09/25 10:33:28;;;;;;;;;2.75;2.75;;;;;;;;5038982;28;45255;-83
2023/09/25 10:35:57;;;;;;;;;4.67;4.67;;;;;;;;5054171;28;48263;-82
2023/09/25 10:38:26;;;;;;;;;4.67;4.67;;;;;;;;5022120;28;45292;-82
2023/09/25 10:40:52;;;;;;;;;5.00;4.00;;;;;;;;5023689;28;45241;-82
2023/09/25 10:43:18;;;;;;;;;3.25;3.25;;;;;;;;5021285;28;46009;-79
2023/09/25 10:45:44;;;;;;;;;3.00;3.00;;;;;;;;5026278;28;45284;-78
2023/09/25 10:48:09;;;;;;;;;4.33;3.67;;;;;;;;5030375;28;45359;-80
2023/09/25 10:50:37;;;;;;;;;3.00;3.00;;;;;;;;5026919;28;45451;-77
2023/09/25 10:53:03;;;;;;;;;5.00;5.00;;;;;;;;5033381;28;45940;-75
2023/09/25 10:55:28;;;;;;;;;3.00;3.00;;;;;;;;5041150;28;45357;-78
2023/09/25 10:57:53;;;;;;;;;4.67;4.67;;;;;;;;5039655;28;45360;-80
2023/09/25 11:00:19;;;;;;;;;3.75;3.75;;;;;;;;5041123;28;45588;-77
2023/09/25 11:02:44;;;;;;;;;4.75;4.50;;;;;;;;5041050;28;45392;-78
2023/09/25 11:05:13;;;;;;;;;2.00;2.00;;;;;;;;5039483;28;48395;-79
2023/09/25 11:07:38;;;;;;;;;3.25;3.25;;;;;;;;5039872;28;45393;-80
2023/09/25 11:10:04;;;;;;;;;4.75;4.00;;;;;;;;5041100;28;45568;-80
2023/09/25 11:12:30;;;;;;;;;6.00;4.00;;;;;;;;5041374;28;45351;-78
2023/09/25 11:14:55;;;;;;;;;6.50;5.25;;;;;;;;5040875;28;45408;-79
2023/09/25 11:17:21;;;;;;;;;3.75;2.00;;;;;;;;5039805;28;45925;-79
2023/09/25 11:19:46;;;;;;;;;3.00;2.75;;;;;;;;5039618;28;45385;-79
2023/09/25 11:22:11;;;;;;;;;5.33;5.33;;;;;;;;5040462;28;45344;-77
2023/09/25 11:24:37;;;;;;;;;3.25;3.25;;;;;;;;5036012;28;48138;-79
2023/09/25 11:27:08;;;;;;;;;5.00;4.33;;;;;;;;5031272;28;45549;-76
2023/09/25 11:29:36;;;;;;;;;4.25;3.00;;;;;;;;5021375;28;45852;-76
2023/09/25 11:32:02;;;;;;;;;3.25;3.25;;;;;;;;5023914;28;45556;-77
2023/09/25 11:34:27;;;;;;;;;3.00;3.00;;;;;;;;5040383;28;45381;-76
2023/09/25 11:36:53;;;;;;;;;3.75;3.50;;;;;;;;5035441;28;45329;-77
2023/09/25 11:39:18;;;;;;;;;2.75;2.75;;;;;;;;5021197;28;45423;-77
2023/09/25 11:41:44;;;;;;;;;3.00;3.00;;;;;;;;5021646;28;45434;-77
2023/09/25 11:44:09;;;;;;;;;2.75;2.75;;;;;;;;5021083;28;46292;-78
2023/09/25 11:46:34;;;;;;;;;2.50;2.50;;;;;;;;5020240;28;45301;-78
2023/09/25 11:49:00;;;;;;;;;3.00;2.75;;;;;;;;5035760;28;45207;-77
2023/09/25 11:51:26;;;;;;;;;3.75;3.75;;;;;;;;5031589;28;45290;-77
2023/09/25 11:53:52;;;;;;;;;1.50;1.25;;;;;;;;5021219;28;46148;-78
2023/09/25 11:56:17;;;;;;;;;2.00;2.00;;;;;;;;5022183;28;45221;-78
2023/09/25 11:58:42;;;;;;;;;3.00;3.00;;;;;;;;5022402;28;45185;-78
2023/09/25 12:01:08;;;;;;;;;3.00;3.00;;;;;;;;5021259;28;45483;-77
2023/09/25 12:03:38;;;;;;;;;3.50;3.50;;;;;;;;5021247;28;45307;-77
2023/09/25 12:06:05;;;;;;;;;5.00;4.00;;;;;;;;5019737;28;45341;-77
2023/09/25 12:08:30;;;;;;;;;3.75;3.50;;;;;;;;5021284;28;45262;-77
2023/09/25 12:11:01;;;;;;;;;3.00;3.00;;;;;;;;5033799;28;45422;-76
2023/09/25 12:13:26;;;;;;;;;2.75;2.75;;;;;;;;5036308;28;47498;-76
2023/09/25 12:15:51;;;;;;;;;3.50;3.25;;;;;;;;5036599;28;45656;-77
2023/09/25 12:18:17;;;;;;;;;4.50;4.50;;;;;;;;5024925;28;45484;-77
2023/09/25 12:20:43;;;;;;;;;5.25;4.75;;;;;;;;5036366;28;45352;-76
2023/09/25 12:23:09;;;;;;;;;3.25;3.25;;;;;;;;5025716;28;45372;-77
2023/09/25 12:25:34;;;;;;;;;2.25;2.25;;;;;;;;5054112;28;45683;-77
2023/09/25 12:27:59;;;;;;;;;4.00;4.00;;;;;;;;5040480;28;45314;-77
2023/09/25 12:30:24;;;;;;;;;3.25;3.25;;;;;;;;5040130;28;45527;-77
2023/09/25 12:32:50;;;;;;;;;4.00;4.00;;;;;;;;5025923;28;46356;-77
2023/09/25 12:35:16;;;;;;;;;2.50;2.50;;;;;;;;5039820;28;45397;-78
2023/09/25 12:37:45;;;;;;;;;4.00;3.00;;;;;;;;5040381;28;45358;-78
2023/09/25 12:40:11;;;;;;;;;2.25;1.25;;;;;;;;5020955;28;45378;-77
2023/09/25 12:42:36;;;;;;;;;3.00;3.00;;;;;;;;5018426;28;47331;-77
2023/09/25 12:45:04;;;;;;;;;1.50;1.50;;;;;;;;5035721;28;45309;-76
2023/09/25 12:47:30;;;;;;;;;3.00;3.00;;;;;;;;5019213;28;45403;-77
2023/09/25 12:49:55;;;;;;;;;3.00;3.00;;;;;;;;5025697;28;47582;-77
2023/09/25 12:52:20;;;;;;;;;2.00;2.00;;;;;;;;5032225;28;45365;-77
2023/09/25 12:54:48;;;;;;;;;4.00;4.00;;;;;;;;5037820;28;45225;-77
2023/09/25 12:57:13;;;;;;;;;3.25;2.25;;;;;;;;5039958;28;45456;-77
2023/09/25 12:59:39;;;;;;;;;3.75;3.25;;;;;;;;5039779;28;45377;-77
2023/09/25 13:02:04;;;;;;;;;2.75;2.75;;;;;;;;5038254;28;47980;-78
2023/09/25 13:04:31;;;;;;;;;3.75;3.00;;;;;;;;5037788;28;45431;-77
2023/09/25 13:06:56;;;;;;;;;4.00;3.50;;;;;;;;5039180;28;45485;-77
2023/09/25 13:09:22;;;;;;;;;2.50;2.50;;;;;;;;5033661;28;45691;-76
2023/09/25 13:11:48;;;;;;;;;1.75;1.75;;;;;;;;5029698;28;45315;-77
2023/09/25 13:14:14;;;;;;;;;2.25;2.25;;;;;;;;5039965;28;45440;-76
2023/09/25 13:16:39;;;;;;;;;4.25;2.25;;;;;;;;5039141;28;45370;-77
2023/09/25 13:19:05;;;;;;;;;2.00;2.00;;;;;;;;5039157;28;45913;-77
2023/09/25 13:21:30;;;;;;;;;3.00;3.00;;;;;;;;5039494;28;46206;-77
2023/09/25 13:23:56;;;;;;;;;2.00;2.00;;;;;;;;5038306;28;45656;-77
2023/09/25 13:26:25;;;;;;;;;5.00;4.50;;;;;;;;5038192;28;45394;-77
2023/09/25 13:28:51;;;;;;;;;3.00;2.75;;;;;;;;5035325;28;46188;-77
2023/09/25 13:31:17;;;;;;;;;2.00;2.00;;;;;;;;5036654;28;46375;-77
2023/09/25 13:33:42;;;;;;;;;3.50;2.50;;;;;;;;5025458;28;45449;-76
2023/09/25 13:36:07;;;;;;;;;2.75;2.75;;;;;;;;5035132;28;45397;-77
2023/09/25 13:38:32;;;;;;;;;2.00;2.00;;;;;;;;5032608;28;45441;-78
2023/09/25 13:40:57;;;;;;;;;2.50;2.50;;;;;;;;5036427;28;45596;-76
2023/09/25 13:43:23;;;;;;;;;3.50;3.50;;;;;;;;5038785;28;45390;-77
2023/09/25 13:45:48;;;;;;;;;3.75;3.75;;;;;;;;5039076;28;45349;-76
2023/09/25 13:48:13;;;;;;;;;4.00;3.25;;;;;;;;5037189;28;46975;-76
2023/09/25 13:50:38;;;;;;;;;4.00;4.00;;;;;;;;5038472;28;45468;-77
2023/09/25 13:53:03;;;;;;;;;3.00;3.00;;;;;;;;5037136;28;45675;-76
2023/09/25 13:55:28;;;;;;;;;3.00;3.00;;;;;;;;5037947;28;45274;-76
2023/09/25 13:57:54;;;;;;;;;5.50;3.75;;;;;;;;5036657;28;46053;-77
2023/09/25 14:00:19;;;;;;;;;6.00;4.00;;;;;;;;5038584;28;46150;-77
2023/09/25 14:02:44;;;;;;;;;3.25;3.25;;;;;;;;5037506;28;45289;-76
2023/09/25 14:05:11;;;;;;;;;5.25;5.25;;;;;;;;5038853;28;45218;-76
2023/09/25 14:07:37;;;;;;;;;2.25;2.25;;;;;;;;5038447;28;45204;-76
2023/09/25 14:10:02;;;;;;;;;3.00;2.50;;;;;;;;5038427;28;45220;-76
2023/09/25 14:12:27;;;;;;;;;3.75;3.75;;;;;;;;5039117;28;45224;-77
2023/09/25 14:14:53;;;;;;;;;3.75;3.75;;;;;;;;5038551;28;45283;-77
2023/09/25 14:17:19;;;;;;;;;6.00;4.25;;;;;;;;5039030;28;45356;-77
2023/09/25 14:19:45;;;;;;;;;3.75;3.50;;;;;;;;5038571;28;45439;-76
2023/09/25 14:22:10;;;;;;;;;3.00;3.00;;;;;;;;5038528;28;45391;-77
2023/09/25 14:24:36;;;;;;;;;3.25;3.25;;;;;;;;5037856;28;45459;-77
2023/09/25 14:27:01;;;;;;;;;6.00;5.00;;;;;;;;5039108;28;45463;-78
2023/09/25 14:29:26;;;;;;;;;4.00;3.00;;;;;;;;5034425;28;45370;-77
2023/09/25 14:31:52;;;;;;;;;3.50;3.00;;;;;;;;5031877;28;45371;-77